sensor_id;sensor_type;location;lat;lon;timestamp;temperature;humidity
66102;HTU21D;52883;51.094;5.880;2023-12-29T00:02:14;10.79;118.99
66102;HTU21D;52883;51.094;5.880;2023-12-29T00:04:39;10.77;118.99
66102;HTU21D;52883;51.094;5.880;2023-12-29T00:07:05;10.79;118.99
66102;HTU21D;52883;51.094;5.880;2023-12-29T00:09:31;10.82;118.99
66102;HTU21D;52883;51.094;5.880;2023-12-29T00:12:04;10.85;118.99
66102;HTU21D;52883;51.094;5.880;2023-12-29T00:14:29;10.84;118.99
66102;HTU21D;52883;51.094;5.880;2023-12-29T00:16:55;10.86;118.99
66102;HTU21D;52883;51.094;5.880;2023-12-29T00:27:20;10.82;118.99
66102;HTU21D;52883;51.094;5.880;2023-12-29T00:29:47;10.68;118.99
66102;HTU21D;52883;51.094;5.880;2023-12-29T00:32:13;10.56;118.99
66102;HTU21D;52883;51.094;5.880;2023-12-29T00:34:38;10.49;118.99
66102;HTU21D;52883;51.094;5.880;2023-12-29T00:37:05;10.41;118.99
66102;HTU21D;52883;51.094;5.880;2023-12-29T00:39:31;10.39;118.99
66102;HTU21D;52883;51.094;5.880;2023-12-29T00:42:04;10.41;118.99
66102;HTU21D;52883;51.094;5.880;2023-12-29T00:44:33;10.44;118.99
66102;HTU21D;52883;51.094;5.880;2023-12-29T00:46:59;10.51;118.99
66102;HTU21D;52883;51.094;5.880;2023-12-29T00:49:26;10.50;118.99
66102;HTU21D;52883;51.094;5.880;2023-12-29T00:51:53;10.59;118.99
66102;HTU21D;52883;51.094;5.880;2023-12-29T00:54:18;10.59;118.99
66102;HTU21D;52883;51.094;5.880;2023-12-29T00:56:53;10.60;118.99
66102;HTU21D;52883;51.094;5.880;2023-12-29T00:59:20;10.66;118.99
66102;HTU21D;52883;51.094;5.880;2023-12-29T01:01:46;10.69;118.99
66102;HTU21D;52883;51.094;5.880;2023-12-29T01:04:12;10.70;118.99
66102;HTU21D;52883;51.094;5.880;2023-12-29T01:06:37;10.68;118.99
66102;HTU21D;52883;51.094;5.880;2023-12-29T01:09:03;10.72;118.99
66102;HTU21D;52883;51.094;5.880;2023-12-29T01:11:29;10.70;118.99
66102;HTU21D;52883;51.094;5.880;2023-12-29T01:13:55;10.70;118.99
66102;HTU21D;52883;51.094;5.880;2023-12-29T01:16:20;10.72;118.99
66102;HTU21D;52883;51.094;5.880;2023-12-29T01:18:46;10.69;118.99
66102;HTU21D;52883;51.094;5.880;2023-12-29T01:21:12;10.74;118.99
66102;HTU21D;52883;51.094;5.880;2023-12-29T01:23:37;10.74;118.99
66102;HTU21D;52883;51.094;5.880;2023-12-29T01:26:03;10.69;118.99
66102;HTU21D;52883;51.094;5.880;2023-12-29T01:28:29;10.69;118.99
66102;HTU21D;52883;51.094;5.880;2023-12-29T01:30:55;10.69;118.99
66102;HTU21D;52883;51.094;5.880;2023-12-29T01:33:20;10.65;118.99
66102;HTU21D;52883;51.094;5.880;2023-12-29T01:35:47;10.66;118.99
66102;HTU21D;52883;51.094;5.880;2023-12-29T01:38:12;10.66;118.99
66102;HTU21D;52883;51.094;5.880;2023-12-29T01:40:45;10.70;118.99
66102;HTU21D;52883;51.094;5.880;2023-12-29T01:43:12;10.59;118.99
66102;HTU21D;52883;51.094;5.880;2023-12-29T01:45:38;10.49;118.99
66102;HTU21D;52883;51.094;5.880;2023-12-29T01:48:05;10.39;118.99
66102;HTU21D;52883;51.094;5.880;2023-12-29T01:50:31;10.28;118.99
66102;HTU21D;52883;51.094;5.880;2023-12-29T01:52:58;10.28;118.99
66102;HTU21D;52883;51.094;5.880;2023-12-29T01:55:25;10.26;118.99
66102;HTU21D;52883;51.094;5.880;2023-12-29T01:57:52;10.25;118.99
66102;HTU21D;52883;51.094;5.880;2023-12-29T02:00:18;10.22;118.99
66102;HTU21D;52883;51.094;5.880;2023-12-29T02:02:46;10.20;118.99
66102;HTU21D;52883;51.094;5.880;2023-12-29T02:05:17;10.18;118.99
66102;HTU21D;52883;51.094;5.880;2023-12-29T02:07:46;10.13;118.99
66102;HTU21D;52883;51.094;5.880;2023-12-29T02:10:12;10.12;118.99
66102;HTU21D;52883;51.094;5.880;2023-12-29T02:12:41;10.20;118.99
66102;HTU21D;52883;51.094;5.880;2023-12-29T02:15:07;10.27;118.99
66102;HTU21D;52883;51.094;5.880;2023-12-29T02:17:45;10.37;118.99
66102;HTU21D;52883;51.094;5.880;2023-12-29T02:28:06;10.53;118.99
66102;HTU21D;52883;51.094;5.880;2023-12-29T02:30:47;10.56;118.99
66102;HTU21D;52883;51.094;5.880;2023-12-29T02:33:19;10.60;118.99
66102;HTU21D;52883;51.094;5.880;2023-12-29T02:35:48;10.69;118.99
66102;HTU21D;52883;51.094;5.880;2023-12-29T02:38:15;10.75;118.99
66102;HTU21D;52883;51.094;5.880;2023-12-29T02:40:41;10.73;118.99
66102;HTU21D;52883;51.094;5.880;2023-12-29T02:43:11;10.77;118.99
66102;HTU21D;52883;51.094;5.880;2023-12-29T02:45:36;10.78;118.99
66102;HTU21D;52883;51.094;5.880;2023-12-29T02:48:02;10.79;118.99
66102;HTU21D;52883;51.094;5.880;2023-12-29T02:50:28;10.80;118.99
66102;HTU21D;52883;51.094;5.880;2023-12-29T02:52:53;10.81;118.99
66102;HTU21D;52883;51.094;5.880;2023-12-29T02:55:19;10.80;118.99
66102;HTU21D;52883;51.094;5.880;2023-12-29T02:57:44;10.79;118.99
66102;HTU21D;52883;51.094;5.880;2023-12-29T03:00:11;10.81;118.99
66102;HTU21D;52883;51.094;5.880;2023-12-29T03:02:36;10.86;118.99
66102;HTU21D;52883;51.094;5.880;2023-12-29T03:05:03;10.86;118.99
66102;HTU21D;52883;51.094;5.880;2023-12-29T03:07:28;10.85;118.99
66102;HTU21D;52883;51.094;5.880;2023-12-29T03:09:54;10.82;118.99
66102;HTU21D;52883;51.094;5.880;2023-12-29T03:12:20;10.82;118.99
66102;HTU21D;52883;51.094;5.880;2023-12-29T03:14:46;10.83;118.99
66102;HTU21D;52883;51.094;5.880;2023-12-29T03:17:13;10.86;118.99
66102;HTU21D;52883;51.094;5.880;2023-12-29T03:19:38;10.85;118.99
66102;HTU21D;52883;51.094;5.880;2023-12-29T03:22:05;10.89;118.99
66102;HTU21D;52883;51.094;5.880;2023-12-29T03:24:30;10.89;118.99
66102;HTU21D;52883;51.094;5.880;2023-12-29T03:26:56;10.93;118.99
66102;HTU21D;52883;51.094;5.880;2023-12-29T03:36:13;10.97;118.99
66102;HTU21D;52883;51.094;5.880;2023-12-29T03:38:40;10.97;118.99
66102;HTU21D;52883;51.094;5.880;2023-12-29T03:41:05;10.80;118.99
66102;HTU21D;52883;51.094;5.880;2023-12-29T03:43:31;10.68;118.99
66102;HTU21D;52883;51.094;5.880;2023-12-29T03:45:56;10.58;118.99
66102;HTU21D;52883;51.094;5.880;2023-12-29T03:48:23;10.60;118.99
66102;HTU21D;52883;51.094;5.880;2023-12-29T03:50:48;10.56;118.99
66102;HTU21D;52883;51.094;5.880;2023-12-29T03:53:14;10.55;118.99
66102;HTU21D;52883;51.094;5.880;2023-12-29T03:55:43;10.51;118.99
66102;HTU21D;52883;51.094;5.880;2023-12-29T03:58:08;10.49;118.99
66102;HTU21D;52883;51.094;5.880;2023-12-29T04:00:35;10.48;118.99
66102;HTU21D;52883;51.094;5.880;2023-12-29T04:03:01;10.46;118.99
66102;HTU21D;52883;51.094;5.880;2023-12-29T04:05:27;10.39;118.99
66102;HTU21D;52883;51.094;5.880;2023-12-29T04:07:52;10.38;118.99
66102;HTU21D;52883;51.094;5.880;2023-12-29T04:10:18;10.35;118.99
66102;HTU21D;52883;51.094;5.880;2023-12-29T04:12:43;10.36;118.99
66102;HTU21D;52883;51.094;5.880;2023-12-29T04:15:09;10.34;118.99
66102;HTU21D;52883;51.094;5.880;2023-12-29T04:17:35;10.35;118.99
66102;HTU21D;52883;51.094;5.880;2023-12-29T04:20:00;10.31;118.99
66102;HTU21D;52883;51.094;5.880;2023-12-29T04:22:26;10.29;118.99
66102;HTU21D;52883;51.094;5.880;2023-12-29T04:24:51;10.34;118.99
66102;HTU21D;52883;51.094;5.880;2023-12-29T04:27:17;10.30;118.99
66102;HTU21D;52883;51.094;5.880;2023-12-29T04:29:44;10.28;118.99
66102;HTU21D;52883;51.094;5.880;2023-12-29T04:32:10;10.24;118.99
66102;HTU21D;52883;51.094;5.880;2023-12-29T04:34:35;10.22;118.99
66102;HTU21D;52883;51.094;5.880;2023-12-29T04:37:02;10.16;118.99
66102;HTU21D;52883;51.094;5.880;2023-12-29T04:39:27;10.12;118.99
66102;HTU21D;52883;51.094;5.880;2023-12-29T04:41:53;10.07;118.99
66102;HTU21D;52883;51.094;5.880;2023-12-29T04:44:18;10.07;118.99
66102;HTU21D;52883;51.094;5.880;2023-12-29T04:46:44;10.05;118.99
66102;HTU21D;52883;51.094;5.880;2023-12-29T04:49:10;10.05;118.99
66102;HTU21D;52883;51.094;5.880;2023-12-29T04:51:35;10.00;118.99
66102;HTU21D;52883;51.094;5.880;2023-12-29T04:54:01;9.97;118.99
66102;HTU21D;52883;51.094;5.880;2023-12-29T04:56:26;9.95;118.99
66102;HTU21D;52883;51.094;5.880;2023-12-29T04:58:52;9.90;118.99
66102;HTU21D;52883;51.094;5.880;2023-12-29T05:01:17;9.84;118.99
66102;HTU21D;52883;51.094;5.880;2023-12-29T05:03:43;9.79;118.99
66102;HTU21D;52883;51.094;5.880;2023-12-29T05:06:08;9.74;118.99
66102;HTU21D;52883;51.094;5.880;2023-12-29T05:08:34;9.76;118.99
66102;HTU21D;52883;51.094;5.880;2023-12-29T05:11:00;9.74;118.99
66102;HTU21D;52883;51.094;5.880;2023-12-29T05:13:26;9.74;118.99
66102;HTU21D;52883;51.094;5.880;2023-12-29T05:15:52;9.77;118.99
66102;HTU21D;52883;51.094;5.880;2023-12-29T05:18:17;9.77;118.99
66102;HTU21D;52883;51.094;5.880;2023-12-29T05:20:43;9.78;118.99
66102;HTU21D;52883;51.094;5.880;2023-12-29T05:23:08;9.75;118.99
66102;HTU21D;52883;51.094;5.880;2023-12-29T05:25:34;9.75;118.99
66102;HTU21D;52883;51.094;5.880;2023-12-29T05:28:00;9.81;118.99
66102;HTU21D;52883;51.094;5.880;2023-12-29T05:30:25;9.79;118.99
66102;HTU21D;52883;51.094;5.880;2023-12-29T05:32:53;9.78;118.99
66102;HTU21D;52883;51.094;5.880;2023-12-29T05:35:18;9.78;118.99
66102;HTU21D;52883;51.094;5.880;2023-12-29T05:37:44;9.72;118.99
66102;HTU21D;52883;51.094;5.880;2023-12-29T05:40:10;9.72;118.99
66102;HTU21D;52883;51.094;5.880;2023-12-29T05:42:36;9.74;118.99
66102;HTU21D;52883;51.094;5.880;2023-12-29T05:45:02;9.69;118.99
66102;HTU21D;52883;51.094;5.880;2023-12-29T05:47:28;9.69;118.99
66102;HTU21D;52883;51.094;5.880;2023-12-29T05:49:53;9.71;118.99
66102;HTU21D;52883;51.094;5.880;2023-12-29T05:52:19;9.71;118.99
66102;HTU21D;52883;51.094;5.880;2023-12-29T05:54:45;9.75;118.99
66102;HTU21D;52883;51.094;5.880;2023-12-29T05:57:10;9.81;118.99
66102;HTU21D;52883;51.094;5.880;2023-12-29T05:59:36;9.85;118.99
66102;HTU21D;52883;51.094;5.880;2023-12-29T06:02:02;9.96;118.99
66102;HTU21D;52883;51.094;5.880;2023-12-29T06:04:28;9.98;118.99
66102;HTU21D;52883;51.094;5.880;2023-12-29T06:06:53;9.92;118.99
66102;HTU21D;52883;51.094;5.880;2023-12-29T06:09:19;9.91;118.99
66102;HTU21D;52883;51.094;5.880;2023-12-29T06:11:45;9.84;118.99
66102;HTU21D;52883;51.094;5.880;2023-12-29T06:14:10;9.89;118.99
66102;HTU21D;52883;51.094;5.880;2023-12-29T06:16:36;9.91;118.99
66102;HTU21D;52883;51.094;5.880;2023-12-29T06:19:02;10.03;118.99
66102;HTU21D;52883;51.094;5.880;2023-12-29T06:21:28;10.14;118.99
66102;HTU21D;52883;51.094;5.880;2023-12-29T06:23:53;10.19;118.99
66102;HTU21D;52883;51.094;5.880;2023-12-29T06:26:20;10.26;118.99
66102;HTU21D;52883;51.094;5.880;2023-12-29T06:28:47;10.26;118.99
66102;HTU21D;52883;51.094;5.880;2023-12-29T06:31:13;10.30;118.99
66102;HTU21D;52883;51.094;5.880;2023-12-29T06:33:43;10.31;118.99
66102;HTU21D;52883;51.094;5.880;2023-12-29T06:36:09;10.30;118.99
66102;HTU21D;52883;51.094;5.880;2023-12-29T06:38:35;10.33;118.99
66102;HTU21D;52883;51.094;5.880;2023-12-29T06:41:02;10.30;118.99
66102;HTU21D;52883;51.094;5.880;2023-12-29T06:43:28;10.34;118.99
66102;HTU21D;52883;51.094;5.880;2023-12-29T06:45:54;10.37;118.99
66102;HTU21D;52883;51.094;5.880;2023-12-29T06:48:19;10.42;118.99
66102;HTU21D;52883;51.094;5.880;2023-12-29T06:50:45;10.36;118.99
66102;HTU21D;52883;51.094;5.880;2023-12-29T06:53:11;10.15;118.99
66102;HTU21D;52883;51.094;5.880;2023-12-29T06:55:37;9.98;118.99
66102;HTU21D;52883;51.094;5.880;2023-12-29T06:58:04;9.85;118.99
66102;HTU21D;52883;51.094;5.880;2023-12-29T07:00:30;9.74;118.99
66102;HTU21D;52883;51.094;5.880;2023-12-29T07:02:55;9.67;118.99
66102;HTU21D;52883;51.094;5.880;2023-12-29T07:05:21;9.59;118.99
66102;HTU21D;52883;51.094;5.880;2023-12-29T07:07:46;9.53;118.99
66102;HTU21D;52883;51.094;5.880;2023-12-29T07:10:13;9.44;118.99
66102;HTU21D;52883;51.094;5.880;2023-12-29T07:12:40;9.36;118.99
66102;HTU21D;52883;51.094;5.880;2023-12-29T07:15:06;9.32;118.99
66102;HTU21D;52883;51.094;5.880;2023-12-29T07:17:32;9.25;118.99
66102;HTU21D;52883;51.094;5.880;2023-12-29T07:19:58;9.21;118.99
66102;HTU21D;52883;51.094;5.880;2023-12-29T07:22:24;9.15;118.99
66102;HTU21D;52883;51.094;5.880;2023-12-29T07:24:49;9.16;118.99
66102;HTU21D;52883;51.094;5.880;2023-12-29T07:27:15;9.15;118.99
66102;HTU21D;52883;51.094;5.880;2023-12-29T07:29:41;9.12;118.99
66102;HTU21D;52883;51.094;5.880;2023-12-29T07:32:06;9.09;118.99
66102;HTU21D;52883;51.094;5.880;2023-12-29T07:34:32;9.06;118.99
66102;HTU21D;52883;51.094;5.880;2023-12-29T07:36:58;9.01;118.99
66102;HTU21D;52883;51.094;5.880;2023-12-29T07:39:24;9.00;118.99
66102;HTU21D;52883;51.094;5.880;2023-12-29T07:41:50;8.97;118.99
66102;HTU21D;52883;51.094;5.880;2023-12-29T07:44:21;9.01;118.99
66102;HTU21D;52883;51.094;5.880;2023-12-29T07:46:46;9.01;118.99
66102;HTU21D;52883;51.094;5.880;2023-12-29T07:49:12;9.01;118.99
66102;HTU21D;52883;51.094;5.880;2023-12-29T07:51:42;9.02;118.99
66102;HTU21D;52883;51.094;5.880;2023-12-29T07:54:08;9.03;118.99
66102;HTU21D;52883;51.094;5.880;2023-12-29T07:56:34;9.04;118.99
66102;HTU21D;52883;51.094;5.880;2023-12-29T07:59:02;9.03;118.99
66102;HTU21D;52883;51.094;5.880;2023-12-29T08:01:28;9.02;118.99
66102;HTU21D;52883;51.094;5.880;2023-12-29T08:03:54;9.02;118.99
66102;HTU21D;52883;51.094;5.880;2023-12-29T08:06:19;9.04;118.99
66102;HTU21D;52883;51.094;5.880;2023-12-29T08:08:45;9.02;118.99
66102;HTU21D;52883;51.094;5.880;2023-12-29T08:11:17;9.04;118.99
66102;HTU21D;52883;51.094;5.880;2023-12-29T08:13:44;9.00;118.99
66102;HTU21D;52883;51.094;5.880;2023-12-29T08:16:11;9.04;118.99
66102;HTU21D;52883;51.094;5.880;2023-12-29T08:18:36;9.02;118.99
66102;HTU21D;52883;51.094;5.880;2023-12-29T08:21:02;9.03;118.99
66102;HTU21D;52883;51.094;5.880;2023-12-29T08:23:28;9.05;118.99
66102;HTU21D;52883;51.094;5.880;2023-12-29T08:25:55;9.08;118.99
66102;HTU21D;52883;51.094;5.880;2023-12-29T08:28:21;9.08;118.99
66102;HTU21D;52883;51.094;5.880;2023-12-29T08:30:46;9.08;118.99
66102;HTU21D;52883;51.094;5.880;2023-12-29T08:33:12;9.08;118.99
66102;HTU21D;52883;51.094;5.880;2023-12-29T08:35:42;9.14;118.99
66102;HTU21D;52883;51.094;5.880;2023-12-29T08:38:08;9.14;118.99
66102;HTU21D;52883;51.094;5.880;2023-12-29T08:40:33;9.12;118.99
66102;HTU21D;52883;51.094;5.880;2023-12-29T08:42:59;9.12;118.99
66102;HTU21D;52883;51.094;5.880;2023-12-29T08:45:27;9.17;118.99
66102;HTU21D;52883;51.094;5.880;2023-12-29T08:47:52;9.22;118.99
66102;HTU21D;52883;51.094;5.880;2023-12-29T08:50:18;9.25;118.99
66102;HTU21D;52883;51.094;5.880;2023-12-29T08:52:43;9.30;118.99
66102;HTU21D;52883;51.094;5.880;2023-12-29T08:55:09;9.35;118.99
66102;HTU21D;52883;51.094;5.880;2023-12-29T08:57:35;9.37;118.99
66102;HTU21D;52883;51.094;5.880;2023-12-29T09:00:01;9.40;118.99
66102;HTU21D;52883;51.094;5.880;2023-12-29T09:02:27;9.44;118.99
66102;HTU21D;52883;51.094;5.880;2023-12-29T09:04:52;9.44;118.99
66102;HTU21D;52883;51.094;5.880;2023-12-29T09:07:18;9.46;118.99
66102;HTU21D;52883;51.094;5.880;2023-12-29T09:09:44;9.45;118.99
66102;HTU21D;52883;51.094;5.880;2023-12-29T09:12:09;9.42;118.99
66102;HTU21D;52883;51.094;5.880;2023-12-29T09:14:35;9.47;118.99
66102;HTU21D;52883;51.094;5.880;2023-12-29T09:17:01;9.45;118.99
66102;HTU21D;52883;51.094;5.880;2023-12-29T09:19:26;9.48;118.99
66102;HTU21D;52883;51.094;5.880;2023-12-29T09:21:53;9.47;118.99
66102;HTU21D;52883;51.094;5.880;2023-12-29T09:24:18;9.49;118.99
66102;HTU21D;52883;51.094;5.880;2023-12-29T09:26:44;9.55;118.99
66102;HTU21D;52883;51.094;5.880;2023-12-29T09:29:10;9.60;118.99
66102;HTU21D;52883;51.094;5.880;2023-12-29T09:31:35;9.63;118.99
66102;HTU21D;52883;51.094;5.880;2023-12-29T09:34:01;9.67;118.99
66102;HTU21D;52883;51.094;5.880;2023-12-29T09:36:27;9.68;118.99
66102;HTU21D;52883;51.094;5.880;2023-12-29T09:38:53;9.74;118.99
66102;HTU21D;52883;51.094;5.880;2023-12-29T09:41:23;9.80;118.99
66102;HTU21D;52883;51.094;5.880;2023-12-29T09:43:50;9.78;118.99
66102;HTU21D;52883;51.094;5.880;2023-12-29T09:46:21;9.77;118.99
66102;HTU21D;52883;51.094;5.880;2023-12-29T09:48:47;9.78;118.99
66102;HTU21D;52883;51.094;5.880;2023-12-29T09:51:16;9.71;118.99
66102;HTU21D;52883;51.094;5.880;2023-12-29T09:53:48;9.80;118.99
66102;HTU21D;52883;51.094;5.880;2023-12-29T09:56:13;9.75;118.99
66102;HTU21D;52883;51.094;5.880;2023-12-29T09:58:40;9.71;118.99
66102;HTU21D;52883;51.094;5.880;2023-12-29T10:01:06;9.63;118.99
66102;HTU21D;52883;51.094;5.880;2023-12-29T10:03:33;9.60;118.99
66102;HTU21D;52883;51.094;5.880;2023-12-29T10:06:06;9.70;118.99
66102;HTU21D;52883;51.094;5.880;2023-12-29T10:08:45;9.83;118.99
66102;HTU21D;52883;51.094;5.880;2023-12-29T10:11:12;9.98;118.99
66102;HTU21D;52883;51.094;5.880;2023-12-29T10:13:42;10.09;118.99
66102;HTU21D;52883;51.094;5.880;2023-12-29T10:16:35;10.23;118.99
66102;HTU21D;52883;51.094;5.880;2023-12-29T10:19:10;10.33;118.99
66102;HTU21D;52883;51.094;5.880;2023-12-29T10:21:55;10.38;118.99
66102;HTU21D;52883;51.094;5.880;2023-12-29T10:24:22;10.41;118.99
66102;HTU21D;52883;51.094;5.880;2023-12-29T10:26:49;10.48;118.99
66102;HTU21D;52883;51.094;5.880;2023-12-29T10:29:16;10.43;118.99
66102;HTU21D;52883;51.094;5.880;2023-12-29T10:31:44;10.46;118.99
66102;HTU21D;52883;51.094;5.880;2023-12-29T10:34:25;10.42;118.99
66102;HTU21D;52883;51.094;5.880;2023-12-29T10:37:03;10.51;118.99
66102;HTU21D;52883;51.094;5.880;2023-12-29T10:39:35;10.53;118.99
66102;HTU21D;52883;51.094;5.880;2023-12-29T10:42:06;10.49;118.99
66102;HTU21D;52883;51.094;5.880;2023-12-29T10:44:37;10.41;118.99
66102;HTU21D;52883;51.094;5.880;2023-12-29T10:47:09;10.41;118.99
66102;HTU21D;52883;51.094;5.880;2023-12-29T10:49:36;10.34;118.99
66102;HTU21D;52883;51.094;5.880;2023-12-29T10:52:15;10.28;118.99
66102;HTU21D;52883;51.094;5.880;2023-12-29T10:54:41;10.31;118.99
66102;HTU21D;52883;51.094;5.880;2023-12-29T10:57:10;10.30;118.99
66102;HTU21D;52883;51.094;5.880;2023-12-29T10:59:36;10.26;118.99
66102;HTU21D;52883;51.094;5.880;2023-12-29T11:02:02;10.25;118.99
66102;HTU21D;52883;51.094;5.880;2023-12-29T11:04:29;10.21;118.99
66102;HTU21D;52883;51.094;5.880;2023-12-29T11:06:54;10.16;118.99
66102;HTU21D;52883;51.094;5.880;2023-12-29T11:09:30;10.12;118.99
66102;HTU21D;52883;51.094;5.880;2023-12-29T11:12:01;10.11;118.99
66102;HTU21D;52883;51.094;5.880;2023-12-29T11:14:27;10.10;118.99
66102;HTU21D;52883;51.094;5.880;2023-12-29T11:16:55;10.18;118.99
66102;HTU21D;52883;51.094;5.880;2023-12-29T11:19:22;10.20;118.99
66102;HTU21D;52883;51.094;5.880;2023-12-29T11:21:57;10.15;118.99
66102;HTU21D;52883;51.094;5.880;2023-12-29T11:24:23;10.23;118.99
66102;HTU21D;52883;51.094;5.880;2023-12-29T11:26:49;10.25;118.99
66102;HTU21D;52883;51.094;5.880;2023-12-29T11:29:18;10.33;118.99
66102;HTU21D;52883;51.094;5.880;2023-12-29T11:31:46;10.31;118.99
66102;HTU21D;52883;51.094;5.880;2023-12-29T11:34:30;10.37;118.99
66102;HTU21D;52883;51.094;5.880;2023-12-29T11:37:21;10.36;118.99
66102;HTU21D;52883;51.094;5.880;2023-12-29T11:40:06;10.41;118.99
66102;HTU21D;52883;51.094;5.880;2023-12-29T11:42:40;10.46;118.99
66102;HTU21D;52883;51.094;5.880;2023-12-29T11:45:35;10.59;118.99
66102;HTU21D;52883;51.094;5.880;2023-12-29T11:48:02;10.68;118.99
66102;HTU21D;52883;51.094;5.880;2023-12-29T11:50:33;10.75;118.99
66102;HTU21D;52883;51.094;5.880;2023-12-29T11:52:59;10.79;118.99
66102;HTU21D;52883;51.094;5.880;2023-12-29T11:55:30;10.73;118.99
66102;HTU21D;52883;51.094;5.880;2023-12-29T11:57:57;10.65;118.99
66102;HTU21D;52883;51.094;5.880;2023-12-29T12:00:46;10.57;118.99
66102;HTU21D;52883;51.094;5.880;2023-12-29T12:03:27;10.49;118.99
66102;HTU21D;52883;51.094;5.880;2023-12-29T12:05:54;10.45;118.99
66102;HTU21D;52883;51.094;5.880;2023-12-29T12:08:30;10.41;118.99
66102;HTU21D;52883;51.094;5.880;2023-12-29T12:10:58;10.39;118.99
66102;HTU21D;52883;51.094;5.880;2023-12-29T12:13:44;10.43;118.99
66102;HTU21D;52883;51.094;5.880;2023-12-29T12:19:08;10.54;118.99
66102;HTU21D;52883;51.094;5.880;2023-12-29T12:21:35;10.52;118.99
66102;HTU21D;52883;51.094;5.880;2023-12-29T12:24:04;10.53;118.99
66102;HTU21D;52883;51.094;5.880;2023-12-29T12:26:31;10.52;118.99
66102;HTU21D;52883;51.094;5.880;2023-12-29T12:28:57;10.52;118.99
66102;HTU21D;52883;51.094;5.880;2023-12-29T12:31:23;10.53;118.99
66102;HTU21D;52883;51.094;5.880;2023-12-29T12:33:57;10.52;118.99
66102;HTU21D;52883;51.094;5.880;2023-12-29T12:36:24;10.43;118.99
66102;HTU21D;52883;51.094;5.880;2023-12-29T12:38:54;10.39;118.99
66102;HTU21D;52883;51.094;5.880;2023-12-29T12:41:21;10.35;118.99
66102;HTU21D;52883;51.094;5.880;2023-12-29T12:44:01;10.37;118.99
66102;HTU21D;52883;51.094;5.880;2023-12-29T12:46:33;10.37;118.99
66102;HTU21D;52883;51.094;5.880;2023-12-29T12:49:00;10.39;118.99
66102;HTU21D;52883;51.094;5.880;2023-12-29T12:51:26;10.39;118.99
66102;HTU21D;52883;51.094;5.880;2023-12-29T12:53:52;10.38;118.99
66102;HTU21D;52883;51.094;5.880;2023-12-29T12:56:19;10.36;118.99
66102;HTU21D;52883;51.094;5.880;2023-12-29T12:58:46;10.29;118.99
66102;HTU21D;52883;51.094;5.880;2023-12-29T13:01:12;10.24;118.99
66102;HTU21D;52883;51.094;5.880;2023-12-29T13:03:39;10.25;118.99
66102;HTU21D;52883;51.094;5.880;2023-12-29T13:06:06;10.26;118.99
66102;HTU21D;52883;51.094;5.880;2023-12-29T13:08:32;10.26;118.99
66102;HTU21D;52883;51.094;5.880;2023-12-29T13:10:59;10.25;118.99
66102;HTU21D;52883;51.094;5.880;2023-12-29T13:13:38;10.25;118.99
66102;HTU21D;52883;51.094;5.880;2023-12-29T13:16:05;10.23;118.99
66102;HTU21D;52883;51.094;5.880;2023-12-29T13:18:31;10.20;118.99
66102;HTU21D;52883;51.094;5.880;2023-12-29T13:20:57;10.13;118.99
66102;HTU21D;52883;51.094;5.880;2023-12-29T13:23:26;10.09;118.99
66102;HTU21D;52883;51.094;5.880;2023-12-29T13:25:58;10.01;118.99
66102;HTU21D;52883;51.094;5.880;2023-12-29T13:28:26;10.03;118.99
66102;HTU21D;52883;51.094;5.880;2023-12-29T13:30:54;9.98;118.99
66102;HTU21D;52883;51.094;5.880;2023-12-29T13:33:36;9.95;118.99
66102;HTU21D;52883;51.094;5.880;2023-12-29T13:36:35;9.94;118.99
66102;HTU21D;52883;51.094;5.880;2023-12-29T13:39:36;9.95;118.99
66102;HTU21D;52883;51.094;5.880;2023-12-29T13:42:05;9.99;118.99
66102;HTU21D;52883;51.094;5.880;2023-12-29T13:44:34;9.95;118.99
66102;HTU21D;52883;51.094;5.880;2023-12-29T13:47:01;9.90;118.99
66102;HTU21D;52883;51.094;5.880;2023-12-29T13:49:27;9.83;118.99
66102;HTU21D;52883;51.094;5.880;2023-12-29T13:51:53;9.78;118.99
66102;HTU21D;52883;51.094;5.880;2023-12-29T13:54:19;9.70;118.99
66102;HTU21D;52883;51.094;5.880;2023-12-29T13:56:55;9.62;118.99
66102;HTU21D;52883;51.094;5.880;2023-12-29T13:59:31;9.57;118.99
66102;HTU21D;52883;51.094;5.880;2023-12-29T14:02:19;9.53;118.99
66102;HTU21D;52883;51.094;5.880;2023-12-29T14:04:46;9.50;118.99
66102;HTU21D;52883;51.094;5.880;2023-12-29T14:07:12;9.50;118.99
66102;HTU21D;52883;51.094;5.880;2023-12-29T14:09:39;9.51;118.99
66102;HTU21D;52883;51.094;5.880;2023-12-29T14:12:05;9.52;118.99
66102;HTU21D;52883;51.094;5.880;2023-12-29T14:14:31;9.51;118.99
66102;HTU21D;52883;51.094;5.880;2023-12-29T14:16:57;9.53;118.99
66102;HTU21D;52883;51.094;5.880;2023-12-29T14:19:23;9.56;118.99
66102;HTU21D;52883;51.094;5.880;2023-12-29T14:21:53;9.61;118.99
66102;HTU21D;52883;51.094;5.880;2023-12-29T14:24:19;9.62;118.99
66102;HTU21D;52883;51.094;5.880;2023-12-29T14:29:22;9.71;118.99
66102;HTU21D;52883;51.094;5.880;2023-12-29T14:31:49;9.74;118.99
66102;HTU21D;52883;51.094;5.880;2023-12-29T14:34:18;9.76;118.99
66102;HTU21D;52883;51.094;5.880;2023-12-29T14:36:44;9.77;118.99
66102;HTU21D;52883;51.094;5.880;2023-12-29T14:39:11;9.75;118.99
66102;HTU21D;52883;51.094;5.880;2023-12-29T14:41:37;9.77;118.99
66102;HTU21D;52883;51.094;5.880;2023-12-29T14:44:03;9.77;118.99
66102;HTU21D;52883;51.094;5.880;2023-12-29T14:46:29;9.76;118.99
66102;HTU21D;52883;51.094;5.880;2023-12-29T14:48:57;9.78;118.99
66102;HTU21D;52883;51.094;5.880;2023-12-29T14:51:23;9.75;118.99
66102;HTU21D;52883;51.094;5.880;2023-12-29T14:53:49;9.72;118.99
66102;HTU21D;52883;51.094;5.880;2023-12-29T14:56:16;9.72;118.99
66102;HTU21D;52883;51.094;5.880;2023-12-29T14:58:42;9.71;118.99
66102;HTU21D;52883;51.094;5.880;2023-12-29T15:01:09;9.72;118.99
66102;HTU21D;52883;51.094;5.880;2023-12-29T15:03:36;9.72;118.99
66102;HTU21D;52883;51.094;5.880;2023-12-29T15:06:02;9.71;118.99
66102;HTU21D;52883;51.094;5.880;2023-12-29T15:08:28;9.72;118.99
66102;HTU21D;52883;51.094;5.880;2023-12-29T15:11:04;9.76;118.99
66102;HTU21D;52883;51.094;5.880;2023-12-29T15:13:31;9.79;118.99
66102;HTU21D;52883;51.094;5.880;2023-12-29T15:15:57;9.79;118.99
66102;HTU21D;52883;51.094;5.880;2023-12-29T15:18:24;9.79;118.99
66102;HTU21D;52883;51.094;5.880;2023-12-29T15:20:50;9.77;118.99
66102;HTU21D;52883;51.094;5.880;2023-12-29T15:23:16;9.79;118.99
66102;HTU21D;52883;51.094;5.880;2023-12-29T15:25:42;9.79;118.99
66102;HTU21D;52883;51.094;5.880;2023-12-29T15:28:08;9.80;118.99
66102;HTU21D;52883;51.094;5.880;2023-12-29T15:30:33;9.80;118.99
66102;HTU21D;52883;51.094;5.880;2023-12-29T15:32:59;9.81;118.99
66102;HTU21D;52883;51.094;5.880;2023-12-29T15:35:24;9.82;118.99
66102;HTU21D;52883;51.094;5.880;2023-12-29T15:37:50;9.79;118.99
66102;HTU21D;52883;51.094;5.880;2023-12-29T15:40:16;9.77;118.99